createdAt,value
2022-09-12T00:00:06.169Z,14.46
2022-09-12T00:02:34.017Z,14.49
2022-09-12T00:05:03.425Z,14.44
2022-09-12T00:07:31.271Z,14.41
2022-09-12T00:09:59.128Z,14.34
2022-09-12T00:12:27.156Z,14.38
2022-09-12T00:14:55.006Z,14.40
2022-09-12T00:17:22.841Z,14.39
2022-09-12T00:19:50.751Z,14.28
2022-09-12T00:22:20.001Z,14.33
2022-09-12T00:24:47.845Z,14.30
2022-09-12T00:27:15.696Z,14.28
2022-09-12T00:29:43.579Z,14.28
2022-09-12T00:32:11.484Z,14.19
2022-09-12T00:34:39.453Z,14.20
2022-09-12T00:37:07.375Z,14.15
2022-09-12T00:39:36.761Z,14.08
2022-09-12T00:42:05.040Z,14.08
2022-09-12T00:44:52.013Z,14.05
2022-09-12T00:47:26.529Z,14.03
2022-09-12T00:50:02.389Z,14.08
2022-09-12T00:52:35.413Z,14.08
2022-09-12T00:55:08.944Z,14.00
2022-09-12T00:57:41.705Z,13.96
2022-09-12T01:00:16.116Z,13.91
2022-09-12T01:02:46.757Z,13.88
2022-09-12T01:05:15.224Z,13.92
2022-09-12T01:07:44.647Z,13.90
2022-09-12T01:10:13.931Z,13.89
2022-09-12T01:12:43.966Z,13.82
2022-09-12T01:15:12.577Z,13.82
2022-09-12T01:17:52.049Z,13.78
2022-09-12T01:20:58.040Z,13.72
2022-09-12T01:24:10.557Z,13.74
2022-09-12T01:27:18.643Z,13.66
2022-09-12T01:30:05.077Z,13.69
2022-09-12T01:32:48.024Z,13.62
2022-09-12T01:35:24.713Z,13.54
2022-09-12T01:38:05.611Z,13.56
2022-09-12T01:40:41.588Z,13.60
2022-09-12T01:43:20.653Z,13.61
2022-09-12T01:45:57.266Z,13.60
2022-09-12T01:48:31.192Z,13.66
2022-09-12T01:51:06.129Z,13.48
2022-09-12T01:53:39.276Z,13.49
2022-09-12T01:56:11.493Z,13.40
2022-09-12T01:58:45.422Z,13.44
2022-09-12T02:01:18.814Z,13.44
2022-09-12T02:03:57.232Z,13.38
2022-09-12T02:06:28.607Z,13.38
2022-09-12T02:09:00.656Z,13.37
2022-09-12T02:11:32.291Z,13.33
2022-09-12T02:14:05.557Z,13.31
2022-09-12T02:16:36.949Z,13.34
2022-09-12T02:19:13.706Z,13.33
2022-09-12T02:21:49.212Z,13.19
2022-09-12T02:24:18.498Z,13.31
2022-09-12T02:26:50.889Z,13.34
2022-09-12T02:29:18.945Z,13.35
2022-09-12T02:31:49.119Z,13.30
2022-09-12T02:34:28.927Z,13.19
2022-09-12T02:37:04.061Z,13.13
2022-09-12T02:39:31.986Z,13.10
2022-09-12T02:42:02.959Z,13.03
2022-09-12T02:44:32.900Z,13.17
2022-09-12T02:47:05.919Z,13.21
2022-09-12T02:49:35.397Z,13.10
2022-09-12T02:52:04.189Z,13.12
2022-09-12T02:54:32.463Z,13.10
2022-09-12T02:57:00.335Z,13.13
2022-09-12T02:59:29.107Z,13.17
2022-09-12T03:02:13.419Z,13.11
2022-09-12T03:05:08.579Z,13.04
2022-09-12T03:07:51.776Z,13.06
2022-09-12T03:10:29.332Z,13.10
2022-09-12T03:13:07.496Z,13.14
2022-09-12T03:15:44.871Z,13.13
2022-09-12T03:18:27.647Z,13.23
2022-09-12T03:21:04.184Z,13.26
2022-09-12T03:23:38.559Z,13.19
2022-09-12T03:26:13.879Z,13.26
2022-09-12T03:28:43.534Z,13.25
2022-09-12T03:31:16.113Z,13.23
2022-09-12T03:33:44.491Z,13.30
2022-09-12T03:36:18.436Z,13.35
2022-09-12T03:38:46.518Z,13.30
2022-09-12T03:41:14.525Z,13.31
2022-09-12T03:43:42.823Z,13.35
2022-09-12T03:46:10.760Z,13.36
2022-09-12T03:48:38.633Z,13.40
2022-09-12T03:51:08.660Z,13.36
2022-09-12T03:53:38.142Z,13.46
2022-09-12T03:56:08.616Z,13.40
2022-09-12T03:58:37.335Z,13.15
2022-09-12T04:01:12.299Z,13.50
2022-09-12T04:03:41.109Z,13.17
2022-09-12T04:06:10.331Z,13.57
2022-09-12T04:08:40.148Z,13.66
2022-09-12T04:11:11.079Z,13.70
2022-09-12T04:13:40.036Z,13.71
2022-09-12T04:16:08.586Z,13.74
2022-09-12T04:18:36.969Z,13.75
2022-09-12T04:21:06.288Z,13.92
2022-09-12T04:23:34.648Z,14.15
2022-09-12T04:26:06.508Z,14.34
2022-09-12T04:28:35.854Z,14.52
2022-09-12T04:31:06.089Z,14.76
2022-09-12T04:33:34.055Z,15.01
2022-09-12T04:36:06.870Z,15.15
2022-09-12T04:38:35.677Z,15.46
2022-09-12T04:41:11.722Z,15.69
2022-09-12T04:43:39.613Z,15.83
2022-09-12T04:46:08.523Z,15.83
2022-09-12T04:48:36.804Z,16.04
2022-09-12T04:51:09.025Z,16.38
2022-09-12T04:53:37.026Z,16.45
2022-09-12T04:56:08.367Z,16.42
2022-09-12T04:58:36.917Z,16.76
2022-09-12T05:01:06.440Z,16.96
2022-09-12T05:03:34.723Z,17.27
2022-09-12T05:06:03.847Z,17.44
2022-09-12T05:08:31.897Z,17.52
2022-09-12T05:11:03.808Z,17.45
2022-09-12T05:13:34.055Z,17.62
2022-09-12T05:16:03.677Z,17.61
2022-09-12T05:18:33.384Z,17.55
2022-09-12T05:21:02.435Z,17.78
2022-09-12T05:23:30.535Z,18.11
2022-09-12T05:25:59.991Z,18.06
2022-09-12T05:28:33.558Z,17.66
2022-09-12T05:31:02.980Z,17.42
2022-09-12T05:33:31.229Z,16.89
2022-09-12T05:35:59.147Z,16.39
2022-09-12T05:38:29.029Z,16.61
2022-09-12T05:41:04.725Z,17.58
2022-09-12T05:43:34.165Z,18.19
2022-09-12T05:46:03.498Z,18.63
2022-09-12T05:48:31.555Z,18.99
2022-09-12T05:51:03.835Z,19.43
2022-09-12T05:53:32.461Z,18.93
2022-09-12T05:56:08.335Z,19.53
2022-09-12T05:58:39.888Z,18.75
2022-09-12T06:01:11.442Z,18.15
2022-09-12T06:03:43.301Z,18.21
2022-09-12T06:06:13.697Z,19.32
2022-09-12T06:08:43.251Z,20.07
2022-09-12T06:11:13.487Z,19.63
2022-09-12T06:13:43.913Z,19.84
2022-09-12T06:16:14.238Z,20.46
2022-09-12T06:18:42.936Z,20.66
2022-09-12T06:21:12.856Z,20.93
2022-09-12T06:23:41.702Z,21.13
2022-09-12T06:26:11.671Z,20.35
2022-09-12T06:28:41.855Z,20.61
2022-09-12T06:31:13.208Z,20.83
2022-09-12T06:33:43.129Z,20.76
2022-09-12T06:36:13.423Z,20.46
2022-09-12T06:38:41.778Z,20.69
2022-09-12T06:41:12.490Z,20.99
2022-09-12T06:43:41.171Z,20.45
2022-09-12T06:46:09.718Z,20.80
2022-09-12T06:48:41.950Z,20.27
2022-09-12T06:51:13.460Z,19.40
2022-09-12T06:53:42.283Z,18.88
2022-09-12T06:56:12.322Z,18.61
2022-09-12T06:58:41.029Z,18.98
2022-09-12T07:01:11.004Z,18.53
2022-09-12T07:03:40.916Z,18.35
2022-09-12T07:06:11.032Z,18.39
2022-09-12T07:08:41.035Z,18.43
2022-09-12T07:11:15.154Z,19.39
2022-09-12T07:13:44.829Z,20.32
2022-09-12T07:16:18.676Z,20.55
2022-09-12T07:18:51.893Z,19.92
2022-09-12T07:21:20.583Z,20.00
2022-09-12T07:23:49.160Z,21.12
2022-09-12T07:26:18.044Z,21.46
2022-09-12T07:28:46.239Z,21.04
2022-09-12T07:31:16.336Z,20.82
2022-09-12T07:33:45.125Z,21.24
2022-09-12T07:36:16.501Z,21.94
2022-09-12T07:38:45.879Z,22.04
2022-09-12T07:41:14.682Z,21.44
2022-09-12T07:43:42.996Z,20.86
2022-09-12T07:46:11.518Z,20.90
2022-09-12T07:48:40.976Z,20.63
2022-09-12T07:51:11.668Z,21.51
2022-09-12T07:53:43.349Z,21.96
2022-09-12T07:56:12.919Z,22.45
2022-09-12T07:58:43.260Z,21.42
2022-09-12T08:01:14.674Z,21.52
2022-09-12T08:03:44.176Z,20.65
2022-09-12T08:06:15.051Z,20.33
2022-09-12T08:08:44.432Z,21.26
2022-09-12T08:11:14.821Z,22.03
2022-09-12T08:13:43.863Z,21.55
2022-09-12T08:16:14.153Z,21.81
2022-09-12T08:18:42.691Z,21.67
2022-09-12T08:21:14.553Z,22.57
2022-09-12T08:23:42.561Z,21.69
2022-09-12T08:26:13.262Z,22.06
2022-09-12T08:28:41.791Z,22.55
2022-09-12T08:31:12.523Z,22.52
2022-09-12T08:33:40.929Z,21.82
2022-09-12T08:36:11.883Z,21.85
2022-09-12T08:38:41.698Z,21.46
2022-09-12T08:41:20.115Z,21.72
2022-09-12T08:44:00.707Z,21.83
2022-09-12T08:46:36.440Z,21.50
2022-09-12T08:49:06.733Z,20.89
2022-09-12T08:51:36.912Z,20.77
2022-09-12T08:54:10.983Z,20.94
2022-09-12T08:56:40.490Z,21.05
2022-09-12T08:59:10.099Z,21.41
2022-09-12T09:01:43.743Z,22.54
2022-09-12T09:04:26.909Z,23.46
2022-09-12T09:07:16.216Z,23.12
2022-09-12T09:09:59.665Z,22.13
2022-09-12T09:12:41.625Z,21.19
2022-09-12T09:15:24.844Z,22.29
2022-09-12T09:17:56.073Z,22.67
2022-09-12T09:20:31.312Z,23.49
2022-09-12T09:23:04.578Z,23.91
2022-09-12T09:25:43.998Z,24.75
2022-09-12T09:28:18.530Z,23.63
2022-09-12T09:30:47.641Z,23.82
2022-09-12T09:33:23.450Z,22.97
2022-09-12T09:36:00.524Z,23.48
2022-09-12T09:38:41.542Z,24.51
2022-09-12T09:41:39.272Z,24.04
2022-09-12T09:44:08.955Z,24.23
2022-09-12T09:46:37.037Z,24.32
2022-09-12T09:49:07.800Z,24.87
2022-09-12T09:51:37.795Z,23.78
2022-09-12T09:54:18.856Z,23.49
2022-09-12T09:56:47.149Z,24.14
2022-09-12T09:59:19.202Z,23.66
2022-09-12T10:01:49.759Z,24.00
2022-09-12T10:04:22.450Z,23.79
2022-09-12T10:06:54.381Z,24.01
2022-09-12T10:09:27.816Z,23.88
2022-09-12T10:11:56.676Z,24.07
2022-09-12T10:14:35.099Z,24.27
2022-09-12T10:17:22.778Z,24.27
2022-09-12T10:20:04.846Z,24.16
2022-09-12T10:22:39.643Z,23.92
2022-09-12T10:25:13.464Z,23.36
2022-09-12T10:27:43.048Z,23.34
2022-09-12T10:30:21.747Z,22.57
2022-09-12T10:32:51.813Z,22.81
2022-09-12T10:35:22.207Z,23.82
2022-09-12T10:37:56.706Z,24.19
2022-09-12T10:40:27.518Z,24.78
2022-09-12T10:42:57.456Z,25.06
2022-09-12T10:45:30.131Z,24.96
2022-09-12T10:48:03.060Z,25.54
2022-09-12T10:50:37.600Z,24.18
2022-09-12T10:53:20.349Z,22.78
2022-09-12T10:56:02.944Z,23.93
2022-09-12T10:59:11.867Z,24.42
2022-09-12T11:01:47.175Z,25.02
2022-09-12T11:04:42.522Z,23.21
2022-09-12T11:07:34.177Z,23.89
2022-09-12T11:10:10.633Z,24.48
2022-09-12T11:12:45.072Z,24.88
2022-09-12T11:15:39.512Z,25.02
2022-09-12T11:18:23.433Z,24.66
2022-09-12T11:21:15.696Z,24.40
2022-09-12T11:24:07.180Z,24.06
2022-09-12T11:26:46.067Z,23.64
2022-09-12T11:29:26.600Z,22.30
2022-09-12T11:32:11.566Z,21.45
2022-09-12T11:34:55.106Z,21.34
2022-09-12T11:37:44.824Z,22.43
2022-09-12T11:40:27.853Z,22.69
2022-09-12T11:43:00.765Z,23.28
2022-09-12T11:45:33.710Z,23.96
2022-09-12T11:48:08.663Z,24.76
2022-09-12T11:50:38.333Z,24.89
2022-09-12T11:53:16.345Z,25.05
2022-09-12T11:55:53.517Z,25.36
2022-09-12T11:58:26.798Z,25.34
2022-09-12T12:00:58.860Z,25.53
2022-09-12T12:03:32.335Z,24.47
2022-09-12T12:06:07.128Z,24.54
2022-09-12T12:08:40.723Z,24.29
2022-09-12T12:11:09.926Z,23.87
2022-09-12T12:13:43.284Z,23.30
2022-09-12T12:16:17.566Z,23.67
2022-09-12T12:18:45.865Z,23.58
2022-09-12T12:21:39.434Z,23.58
2022-09-12T12:24:20.426Z,23.96
2022-09-12T12:27:00.432Z,23.00
2022-09-12T12:29:43.862Z,23.19
2022-09-12T12:32:27.211Z,23.84
2022-09-12T12:35:40.554Z,23.93
2022-09-12T12:38:29.809Z,23.58
2022-09-12T12:41:47.697Z,24.02
2022-09-12T12:44:50.337Z,24.16
2022-09-12T12:47:21.889Z,23.71
2022-09-12T12:49:54.477Z,23.40
2022-09-12T12:52:22.961Z,22.33
2022-09-12T12:54:56.015Z,22.62
2022-09-12T12:57:42.008Z,22.18
2022-09-12T13:00:29.937Z,21.77
2022-09-12T13:03:00.234Z,21.59
2022-09-12T13:05:31.850Z,21.24
2022-09-12T13:08:07.297Z,21.05
2022-09-12T13:10:35.784Z,21.41
2022-09-12T13:13:08.761Z,21.33
2022-09-12T13:15:57.371Z,21.31
2022-09-12T13:18:28.879Z,21.20
2022-09-12T13:21:10.213Z,21.16
2022-09-12T13:23:38.292Z,21.42
2022-09-12T13:26:12.234Z,21.26
2022-09-12T13:28:41.479Z,21.21
2022-09-12T13:31:16.658Z,21.34
2022-09-12T13:33:47.939Z,20.79
2022-09-12T13:36:33.622Z,20.13
2022-09-12T13:39:15.896Z,21.09
2022-09-12T13:42:08.876Z,21.06
2022-09-12T13:44:44.346Z,20.85
2022-09-12T13:47:16.688Z,21.13
2022-09-12T13:49:46.635Z,21.16
2022-09-12T13:52:20.082Z,21.32
2022-09-12T13:54:51.664Z,21.27
2022-09-12T13:57:36.196Z,21.27
2022-09-12T14:00:08.882Z,21.35
2022-09-12T14:02:38.211Z,20.87
2022-09-12T14:05:14.837Z,21.00
2022-09-12T14:07:55.250Z,20.88
2022-09-12T14:10:30.244Z,20.84
2022-09-12T14:12:59.472Z,20.68
2022-09-12T14:15:31.428Z,20.52
2022-09-12T14:18:01.794Z,20.76
2022-09-12T14:20:32.690Z,20.97
2022-09-12T14:23:03.707Z,20.73
2022-09-12T14:25:39.075Z,20.31
2022-09-12T14:28:07.635Z,20.19
2022-09-12T14:30:39.030Z,20.14
2022-09-12T14:33:19.838Z,20.30
2022-09-12T14:35:49.913Z,20.37
2022-09-12T14:38:25.881Z,20.32
2022-09-12T14:41:00.815Z,20.45
2022-09-12T14:43:31.534Z,20.41
2022-09-12T14:46:04.630Z,20.52
2022-09-12T14:48:37.454Z,20.51
2022-09-12T14:51:06.468Z,20.43
2022-09-12T14:53:36.587Z,20.37
2022-09-12T14:56:10.141Z,20.37
2022-09-12T14:58:39.588Z,20.03
2022-09-12T15:01:25.258Z,19.92
2022-09-12T15:03:55.549Z,19.86
2022-09-12T15:06:28.633Z,19.66
2022-09-12T15:08:58.948Z,19.67
2022-09-12T15:11:27.172Z,19.58
2022-09-12T15:13:55.179Z,19.55
2022-09-12T15:16:24.442Z,19.52
2022-09-12T15:18:52.625Z,19.44
2022-09-12T15:21:22.300Z,19.02
2022-09-12T15:23:51.317Z,19.04
2022-09-12T15:26:20.848Z,19.37
2022-09-12T15:28:49.386Z,19.01
2022-09-12T15:31:26.524Z,19.13
2022-09-12T15:33:55.517Z,19.21
2022-09-12T15:36:24.847Z,19.04
2022-09-12T15:38:53.204Z,19.09
2022-09-12T15:41:23.234Z,19.00
2022-09-12T15:43:51.659Z,19.11
2022-09-12T15:46:20.359Z,19.14
2022-09-12T15:48:50.197Z,18.90
2022-09-12T15:51:20.493Z,19.01
2022-09-12T15:53:50.206Z,18.95
2022-09-12T15:56:20.087Z,18.64
2022-09-12T15:58:59.186Z,18.99
2022-09-12T16:01:29.400Z,18.84
2022-09-12T16:03:59.121Z,18.78
2022-09-12T16:06:27.925Z,18.82
2022-09-12T16:08:56.285Z,18.85
2022-09-12T16:11:26.161Z,18.71
2022-09-12T16:13:55.014Z,18.86
2022-09-12T16:16:23.057Z,18.88
2022-09-12T16:18:50.985Z,18.87
2022-09-12T16:21:20.219Z,18.85
2022-09-12T16:23:49.514Z,18.67
2022-09-12T16:26:18.362Z,18.86
2022-09-12T16:28:46.397Z,18.81
2022-09-12T16:31:15.306Z,18.84
2022-09-12T16:33:43.338Z,18.63
2022-09-12T16:36:13.145Z,18.65
2022-09-12T16:38:46.963Z,18.86
2022-09-12T16:41:15.955Z,18.86
2022-09-12T16:43:44.319Z,18.73
2022-09-12T16:46:14.261Z,18.69
2022-09-12T16:48:48.101Z,18.75
2022-09-12T16:51:21.691Z,18.71
2022-09-12T16:53:51.706Z,18.66
2022-09-12T16:56:19.997Z,18.68
2022-09-12T16:58:48.882Z,18.56
2022-09-12T17:01:18.650Z,18.62
2022-09-12T17:03:47.125Z,18.51
2022-09-12T17:06:16.744Z,18.52
2022-09-12T17:08:47.022Z,18.48
2022-09-12T17:11:18.212Z,18.18
2022-09-12T17:14:06.135Z,18.01
2022-09-12T17:16:35.523Z,18.10
2022-09-12T17:19:04.072Z,18.36
2022-09-12T17:21:32.416Z,18.40
2022-09-12T17:24:00.323Z,18.33
2022-09-12T17:26:29.583Z,18.27
2022-09-12T17:28:57.417Z,18.00
2022-09-12T17:31:25.473Z,18.31
2022-09-12T17:33:57.336Z,18.26
2022-09-12T17:36:25.778Z,18.22
2022-09-12T17:38:54.325Z,18.24
2022-09-12T17:41:23.891Z,17.85
2022-09-12T17:43:56.563Z,18.20
2022-09-12T17:46:26.120Z,17.80
2022-09-12T17:48:54.989Z,18.14
2022-09-12T17:51:24.966Z,18.01
2022-09-12T17:53:59.060Z,17.95
2022-09-12T17:56:28.016Z,17.79
2022-09-12T17:58:57.912Z,17.92
2022-09-12T18:01:44.603Z,17.80
2022-09-12T18:04:12.596Z,17.83
2022-09-12T18:06:47.713Z,17.68
2022-09-12T18:09:17.702Z,17.71
2022-09-12T18:11:45.825Z,17.67
2022-09-12T18:14:15.436Z,17.61
2022-09-12T18:16:43.556Z,17.56
2022-09-12T18:19:11.597Z,17.32
2022-09-12T18:21:39.891Z,17.46
2022-09-12T18:24:07.771Z,17.34
2022-09-12T18:26:35.879Z,17.40
2022-09-12T18:29:03.783Z,17.22
2022-09-12T18:31:33.100Z,17.30
2022-09-12T18:34:01.435Z,17.30
2022-09-12T18:36:30.081Z,17.30
2022-09-12T18:38:59.274Z,16.97
2022-09-12T18:41:28.994Z,17.10
2022-09-12T18:43:57.921Z,17.03
2022-09-12T18:46:26.860Z,17.27
2022-09-12T18:48:58.443Z,16.76
2022-09-12T18:51:31.326Z,16.91
2022-09-12T18:54:01.463Z,17.35
2022-09-12T18:56:32.932Z,17.15
2022-09-12T18:59:01.769Z,17.22
2022-09-12T19:01:31.173Z,17.31
2022-09-12T19:04:04.662Z,17.25
2022-09-12T19:06:35.396Z,17.18
2022-09-12T19:09:07.607Z,17.05
2022-09-12T19:11:38.241Z,16.87
2022-09-12T19:14:07.276Z,17.20
2022-09-12T19:16:36.079Z,17.07
2022-09-12T19:19:06.294Z,17.22
2022-09-12T19:21:35.345Z,17.16
2022-09-12T19:24:06.993Z,17.22
2022-09-12T19:26:35.776Z,17.22
2022-09-12T19:29:03.691Z,17.08
2022-09-12T19:31:32.442Z,17.09
2022-09-12T19:34:01.860Z,16.96
2022-09-12T19:36:49.121Z,17.09
2022-09-12T19:39:17.655Z,17.23
2022-09-12T19:41:46.103Z,17.14
2022-09-12T19:44:14.076Z,17.26
2022-09-12T19:46:42.195Z,17.14
2022-09-12T19:49:12.010Z,17.17
2022-09-12T19:51:41.680Z,17.12
2022-09-12T19:54:09.657Z,17.20
2022-09-12T19:56:37.573Z,17.23
2022-09-12T19:59:05.443Z,16.92
2022-09-12T20:01:34.721Z,17.27
2022-09-12T20:04:03.129Z,17.17
2022-09-12T20:06:31.185Z,17.17
2022-09-12T20:09:00.406Z,17.27
2022-09-12T20:11:28.277Z,17.20
2022-09-12T20:13:56.115Z,16.89
2022-09-12T20:16:28.468Z,16.79
2022-09-12T20:18:58.928Z,17.04
2022-09-12T20:21:31.718Z,16.68
2022-09-12T20:24:06.531Z,16.97
2022-09-12T20:26:35.053Z,16.89
2022-09-12T20:29:03.314Z,16.68
2022-09-12T20:31:31.982Z,16.59
2022-09-12T20:34:00.491Z,16.76
2022-09-12T20:36:28.834Z,16.71
2022-09-12T20:39:00.095Z,16.64
2022-09-12T20:41:32.176Z,16.52
2022-09-12T20:44:00.161Z,16.60
2022-09-12T20:46:29.404Z,16.56
2022-09-12T20:48:58.456Z,16.52
2022-09-12T20:51:26.806Z,16.18
2022-09-12T20:53:55.620Z,16.39
2022-09-12T20:56:24.304Z,16.37
2022-09-12T20:58:53.793Z,16.28
2022-09-12T21:01:22.103Z,16.28
2022-09-12T21:03:50.327Z,16.15
2022-09-12T21:06:19.557Z,16.13
2022-09-12T21:08:48.609Z,16.15
2022-09-12T21:11:17.741Z,16.17
2022-09-12T21:13:45.862Z,16.14
2022-09-12T21:16:16.973Z,16.08
2022-09-12T21:18:45.672Z,16.06
2022-09-12T21:21:15.791Z,15.74
2022-09-12T21:23:43.720Z,15.99
2022-09-12T21:26:11.998Z,15.96
2022-09-12T21:28:40.007Z,15.91
2022-09-12T21:31:08.083Z,15.72
2022-09-12T21:33:37.582Z,15.84
2022-09-12T21:36:06.683Z,15.47
2022-09-12T21:38:35.217Z,15.77
2022-09-12T21:41:08.091Z,15.79
2022-09-12T21:43:36.651Z,15.67
2022-09-12T21:46:05.473Z,15.69
2022-09-12T21:48:33.841Z,15.49
2022-09-12T21:51:03.537Z,15.76
2022-09-12T21:53:32.103Z,15.73
2022-09-12T21:56:02.672Z,15.70
2022-09-12T21:58:30.599Z,15.68
2022-09-12T22:00:59.299Z,15.68
2022-09-12T22:03:27.291Z,15.58
2022-09-12T22:05:58.805Z,15.56
2022-09-12T22:08:28.573Z,15.54
2022-09-12T22:11:00.901Z,15.50
2022-09-12T22:13:32.480Z,15.19
2022-09-12T22:16:03.162Z,15.45
2022-09-12T22:18:33.373Z,15.34
2022-09-12T22:21:03.617Z,15.35
2022-09-12T22:23:50.457Z,15.34
2022-09-12T22:26:18.482Z,15.30
2022-09-12T22:28:47.506Z,15.29
2022-09-12T22:31:16.651Z,15.23
2022-09-12T22:33:45.466Z,15.25
2022-09-12T22:36:13.562Z,15.28
2022-09-12T22:38:42.846Z,15.28
2022-09-12T22:41:12.432Z,15.25
2022-09-12T22:43:40.923Z,14.97
2022-09-12T22:46:09.344Z,14.88
2022-09-12T22:48:37.793Z,15.22
2022-09-12T22:51:06.189Z,14.93
2022-09-12T22:53:34.603Z,15.18
2022-09-12T22:56:05.157Z,15.19
2022-09-12T22:58:33.276Z,15.18
2022-09-12T23:01:01.199Z,15.14
2022-09-12T23:03:29.107Z,14.95
2022-09-12T23:05:57.002Z,15.13
2022-09-12T23:08:27.376Z,15.05
2022-09-12T23:11:03.107Z,15.11
2022-09-12T23:13:31.065Z,15.09
2022-09-12T23:15:59.742Z,15.06
2022-09-12T23:18:28.224Z,15.04
2022-09-12T23:21:00.795Z,14.99
2022-09-12T23:23:29.199Z,15.04
2022-09-12T23:26:11.303Z,14.80
2022-09-12T23:28:40.324Z,14.74
2022-09-12T23:31:09.496Z,15.00
2022-09-12T23:33:37.952Z,15.00
2022-09-12T23:36:07.639Z,14.98
2022-09-12T23:38:36.614Z,14.95
2022-09-12T23:41:05.323Z,15.01
2022-09-12T23:43:35.135Z,15.04
2022-09-12T23:46:03.211Z,14.70
2022-09-12T23:48:31.599Z,14.96
2022-09-12T23:50:59.685Z,14.91
2022-09-12T23:53:28.408Z,14.91
2022-09-12T23:55:56.422Z,14.88
2022-09-12T23:58:24.897Z,14.82
